sensor_id;sensor_type;location;lat;lon;timestamp;pressure;altitude;pressure_sealevel;temperature;humidity
29359;BME280;16347;53.232;6.556;2023-04-25T00:01:46;100876.38;;;10.66;54.08
29359;BME280;16347;53.232;6.556;2023-04-25T00:04:14;100869.44;;;10.71;54.05
29359;BME280;16347;53.232;6.556;2023-04-25T00:06:42;100873.66;;;10.66;54.02
29359;BME280;16347;53.232;6.556;2023-04-25T00:09:10;100878.66;;;10.53;54.28
29359;BME280;16347;53.232;6.556;2023-04-25T00:11:40;100883.75;;;10.56;54.64
29359;BME280;16347;53.232;6.556;2023-04-25T00:14:08;100879.31;;;10.72;54.30
29359;BME280;16347;53.232;6.556;2023-04-25T00:16:36;100885.81;;;10.79;54.38
29359;BME280;16347;53.232;6.556;2023-04-25T00:19:04;100884.59;;;10.74;54.54
29359;BME280;16347;53.232;6.556;2023-04-25T00:21:33;100894.75;;;10.72;55.08
29359;BME280;16347;53.232;6.556;2023-04-25T00:24:02;100898.25;;;10.64;54.86
29359;BME280;16347;53.232;6.556;2023-04-25T00:26:30;100910.97;;;10.20;54.53
29359;BME280;16347;53.232;6.556;2023-04-25T00:28:59;100905.41;;;10.12;55.84
29359;BME280;16347;53.232;6.556;2023-04-25T00:31:27;100902.59;;;10.14;55.24
29359;BME280;16347;53.232;6.556;2023-04-25T00:33:56;100909.50;;;10.26;54.86
29359;BME280;16347;53.232;6.556;2023-04-25T00:36:27;100911.81;;;10.39;53.83
29359;BME280;16347;53.232;6.556;2023-04-25T00:38:55;100905.84;;;10.35;53.18
29359;BME280;16347;53.232;6.556;2023-04-25T00:41:25;100906.78;;;10.44;52.67
29359;BME280;16347;53.232;6.556;2023-04-25T00:43:54;100901.81;;;10.39;52.84
29359;BME280;16347;53.232;6.556;2023-04-25T00:46:25;100910.31;;;10.44;51.96
29359;BME280;16347;53.232;6.556;2023-04-25T00:48:53;100908.66;;;10.43;51.46
29359;BME280;16347;53.232;6.556;2023-04-25T00:51:21;100907.56;;;10.36;51.06
29359;BME280;16347;53.232;6.556;2023-04-25T00:53:49;100904.84;;;10.54;51.22
29359;BME280;16347;53.232;6.556;2023-04-25T00:56:18;100907.31;;;10.47;50.19
29359;BME280;16347;53.232;6.556;2023-04-25T00:58:47;100906.69;;;10.53;50.20
29359;BME280;16347;53.232;6.556;2023-04-25T01:01:16;100912.13;;;10.53;50.45
29359;BME280;16347;53.232;6.556;2023-04-25T01:03:46;100903.75;;;10.47;50.06
29359;BME280;16347;53.232;6.556;2023-04-25T01:06:14;100915.72;;;10.54;49.96
29359;BME280;16347;53.232;6.556;2023-04-25T01:08:42;100910.94;;;10.56;49.58
29359;BME280;16347;53.232;6.556;2023-04-25T01:11:10;100904.66;;;10.55;48.01
29359;BME280;16347;53.232;6.556;2023-04-25T01:13:38;100909.09;;;10.56;47.60
29359;BME280;16347;53.232;6.556;2023-04-25T01:16:06;100912.19;;;10.61;47.11
29359;BME280;16347;53.232;6.556;2023-04-25T01:18:34;100905.28;;;10.67;46.98
29359;BME280;16347;53.232;6.556;2023-04-25T01:21:08;100908.31;;;10.64;46.72
29359;BME280;16347;53.232;6.556;2023-04-25T01:23:38;100907.78;;;10.60;46.29
29359;BME280;16347;53.232;6.556;2023-04-25T01:26:07;100905.28;;;10.49;46.21
29359;BME280;16347;53.232;6.556;2023-04-25T01:28:37;100914.13;;;10.51;46.42
29359;BME280;16347;53.232;6.556;2023-04-25T01:31:08;100917.38;;;10.55;46.27
29359;BME280;16347;53.232;6.556;2023-04-25T01:33:37;100916.84;;;10.51;46.17
29359;BME280;16347;53.232;6.556;2023-04-25T01:36:07;100920.75;;;10.49;46.17
29359;BME280;16347;53.232;6.556;2023-04-25T01:38:35;100919.19;;;10.46;46.78
29359;BME280;16347;53.232;6.556;2023-04-25T01:41:03;100919.34;;;10.45;46.86
29359;BME280;16347;53.232;6.556;2023-04-25T01:43:32;100919.88;;;10.48;46.64
29359;BME280;16347;53.232;6.556;2023-04-25T01:46:01;100917.34;;;10.47;46.85
29359;BME280;16347;53.232;6.556;2023-04-25T01:48:29;100925.31;;;10.48;47.50
29359;BME280;16347;53.232;6.556;2023-04-25T01:50:57;100924.22;;;10.41;47.92
29359;BME280;16347;53.232;6.556;2023-04-25T01:53:29;100917.56;;;10.36;48.46
29359;BME280;16347;53.232;6.556;2023-04-25T01:55:58;100935.91;;;10.34;48.68
29359;BME280;16347;53.232;6.556;2023-04-25T01:58:31;100934.41;;;10.39;49.51
29359;BME280;16347;53.232;6.556;2023-04-25T02:01:02;100935.41;;;10.38;49.46
29359;BME280;16347;53.232;6.556;2023-04-25T02:03:38;100940.16;;;10.18;49.76
29359;BME280;16347;53.232;6.556;2023-04-25T02:06:11;100938.44;;;10.17;50.18
29359;BME280;16347;53.232;6.556;2023-04-25T02:08:44;100942.47;;;10.13;49.78
29359;BME280;16347;53.232;6.556;2023-04-25T02:11:12;100934.91;;;10.07;49.91
29359;BME280;16347;53.232;6.556;2023-04-25T02:13:47;100957.25;;;10.01;50.68
29359;BME280;16347;53.232;6.556;2023-04-25T02:16:34;100951.13;;;9.99;50.44
29359;BME280;16347;53.232;6.556;2023-04-25T02:19:02;100949.09;;;9.84;50.96
29359;BME280;16347;53.232;6.556;2023-04-25T02:21:30;100952.03;;;9.90;50.94
29359;BME280;16347;53.232;6.556;2023-04-25T02:23:59;100962.50;;;9.85;50.63
29359;BME280;16347;53.232;6.556;2023-04-25T02:26:28;100962.09;;;9.80;50.81
29359;BME280;16347;53.232;6.556;2023-04-25T02:28:56;100963.72;;;9.73;51.15
29359;BME280;16347;53.232;6.556;2023-04-25T02:31:24;100957.81;;;9.77;51.71
29359;BME280;16347;53.232;6.556;2023-04-25T02:33:53;100958.66;;;9.78;51.62
29359;BME280;16347;53.232;6.556;2023-04-25T02:36:22;100959.88;;;9.66;52.40
29359;BME280;16347;53.232;6.556;2023-04-25T02:38:50;100956.75;;;9.61;52.80
29359;BME280;16347;53.232;6.556;2023-04-25T02:41:21;100961.88;;;9.64;52.57
29359;BME280;16347;53.232;6.556;2023-04-25T02:43:49;100951.13;;;9.72;52.81
29359;BME280;16347;53.232;6.556;2023-04-25T02:46:17;100969.31;;;9.62;52.55
29359;BME280;16347;53.232;6.556;2023-04-25T02:49:03;100954.22;;;9.77;52.24
29359;BME280;16347;53.232;6.556;2023-04-25T02:51:31;100940.38;;;9.80;51.71
29359;BME280;16347;53.232;6.556;2023-04-25T02:54:00;100954.41;;;9.75;52.04
29359;BME280;16347;53.232;6.556;2023-04-25T02:56:30;100952.63;;;9.84;51.98
29359;BME280;16347;53.232;6.556;2023-04-25T02:58:58;100964.22;;;9.86;51.63
29359;BME280;16347;53.232;6.556;2023-04-25T03:01:27;100953.66;;;9.83;51.49
29359;BME280;16347;53.232;6.556;2023-04-25T03:03:55;100962.38;;;9.77;51.18
29359;BME280;16347;53.232;6.556;2023-04-25T03:06:23;100961.25;;;9.79;51.40
29359;BME280;16347;53.232;6.556;2023-04-25T03:08:51;100960.09;;;9.82;51.41
29359;BME280;16347;53.232;6.556;2023-04-25T03:11:20;100961.03;;;9.91;51.19
29359;BME280;16347;53.232;6.556;2023-04-25T03:13:49;100966.31;;;9.92;50.52
29359;BME280;16347;53.232;6.556;2023-04-25T03:16:18;100968.47;;;9.89;50.98
29359;BME280;16347;53.232;6.556;2023-04-25T03:18:46;100969.16;;;9.91;50.49
29359;BME280;16347;53.232;6.556;2023-04-25T03:21:14;100960.88;;;9.92;49.03
29359;BME280;16347;53.232;6.556;2023-04-25T03:23:43;100964.66;;;9.82;48.95
29359;BME280;16347;53.232;6.556;2023-04-25T03:26:11;100962.59;;;9.66;48.43
29359;BME280;16347;53.232;6.556;2023-04-25T03:28:42;100963.75;;;9.63;48.07
29359;BME280;16347;53.232;6.556;2023-04-25T03:31:11;100966.91;;;9.59;48.38
29359;BME280;16347;53.232;6.556;2023-04-25T03:33:39;100979.50;;;9.50;48.04
29359;BME280;16347;53.232;6.556;2023-04-25T03:36:08;100969.31;;;9.62;47.71
29359;BME280;16347;53.232;6.556;2023-04-25T03:38:36;100978.88;;;9.66;48.02
29359;BME280;16347;53.232;6.556;2023-04-25T03:41:05;100975.63;;;9.62;48.05
29359;BME280;16347;53.232;6.556;2023-04-25T03:43:51;100971.78;;;9.55;48.07
29359;BME280;16347;53.232;6.556;2023-04-25T03:46:21;100973.63;;;9.55;48.56
29359;BME280;16347;53.232;6.556;2023-04-25T03:48:49;100982.22;;;9.60;48.46
29359;BME280;16347;53.232;6.556;2023-04-25T03:51:21;100988.06;;;9.55;48.20
29359;BME280;16347;53.232;6.556;2023-04-25T03:53:49;100996.66;;;9.51;48.89
29359;BME280;16347;53.232;6.556;2023-04-25T03:56:30;100997.63;;;9.59;48.74
29359;BME280;16347;53.232;6.556;2023-04-25T03:59:05;100998.50;;;9.50;48.76
29359;BME280;16347;53.232;6.556;2023-04-25T04:01:35;101000.47;;;9.58;49.12
29359;BME280;16347;53.232;6.556;2023-04-25T04:04:03;101002.59;;;9.64;49.45
29359;BME280;16347;53.232;6.556;2023-04-25T04:06:32;101001.47;;;9.66;49.46
29359;BME280;16347;53.232;6.556;2023-04-25T04:09:15;101007.16;;;9.73;49.47
29359;BME280;16347;53.232;6.556;2023-04-25T04:11:43;101009.34;;;9.60;49.88
29359;BME280;16347;53.232;6.556;2023-04-25T04:14:11;101008.44;;;9.69;50.17
29359;BME280;16347;53.232;6.556;2023-04-25T04:16:44;101020.88;;;9.71;50.45
29359;BME280;16347;53.232;6.556;2023-04-25T04:19:12;101019.88;;;9.72;50.35
29359;BME280;16347;53.232;6.556;2023-04-25T04:21:46;101026.84;;;9.75;50.87
29359;BME280;16347;53.232;6.556;2023-04-25T04:24:14;101025.00;;;9.75;50.95
29359;BME280;16347;53.232;6.556;2023-04-25T04:26:51;101026.19;;;9.63;50.96
29359;BME280;16347;53.232;6.556;2023-04-25T04:29:29;101025.31;;;9.72;51.23
29359;BME280;16347;53.232;6.556;2023-04-25T04:32:25;101024.16;;;9.75;51.50
29359;BME280;16347;53.232;6.556;2023-04-25T04:34:54;101026.56;;;9.78;51.38
29359;BME280;16347;53.232;6.556;2023-04-25T04:37:23;101027.75;;;9.66;50.84
29359;BME280;16347;53.232;6.556;2023-04-25T04:39:51;101037.66;;;9.48;51.77
29359;BME280;16347;53.232;6.556;2023-04-25T04:42:27;101027.34;;;9.61;51.38
29359;BME280;16347;53.232;6.556;2023-04-25T04:45:13;101032.31;;;9.65;51.25
29359;BME280;16347;53.232;6.556;2023-04-25T04:48:03;101042.22;;;9.57;51.81
29359;BME280;16347;53.232;6.556;2023-04-25T04:50:53;101053.63;;;9.60;52.08
29359;BME280;16347;53.232;6.556;2023-04-25T04:53:44;101049.91;;;9.61;51.30
29359;BME280;16347;53.232;6.556;2023-04-25T04:56:34;101042.31;;;9.65;51.16
29359;BME280;16347;53.232;6.556;2023-04-25T04:59:17;101059.75;;;9.72;50.97
29359;BME280;16347;53.232;6.556;2023-04-25T05:02:03;101087.09;;;9.42;51.38
29359;BME280;16347;53.232;6.556;2023-04-25T05:04:57;101087.13;;;9.32;52.29
29359;BME280;16347;53.232;6.556;2023-04-25T05:07:35;101090.13;;;9.00;54.23
29359;BME280;16347;53.232;6.556;2023-04-25T05:10:23;101080.31;;;8.90;53.99
29359;BME280;16347;53.232;6.556;2023-04-25T05:13:10;101083.53;;;8.64;54.64
29359;BME280;16347;53.232;6.556;2023-04-25T05:15:55;101088.72;;;8.96;53.82
29359;BME280;16347;53.232;6.556;2023-04-25T05:18:35;101088.69;;;8.77;53.11
29359;BME280;16347;53.232;6.556;2023-04-25T05:21:17;101084.28;;;9.05;52.79
29359;BME280;16347;53.232;6.556;2023-04-25T05:24:06;101092.28;;;9.16;51.75
29359;BME280;16347;53.232;6.556;2023-04-25T05:27:00;101080.56;;;9.25;51.11
29359;BME280;16347;53.232;6.556;2023-04-25T05:29:44;101084.97;;;9.36;50.39
29359;BME280;16347;53.232;6.556;2023-04-25T05:32:36;101089.69;;;9.43;49.58
29359;BME280;16347;53.232;6.556;2023-04-25T05:35:04;101082.00;;;9.29;49.19
29359;BME280;16347;53.232;6.556;2023-04-25T05:37:41;101083.81;;;9.38;48.95
29359;BME280;16347;53.232;6.556;2023-04-25T05:40:12;101092.53;;;9.42;48.85
29359;BME280;16347;53.232;6.556;2023-04-25T05:42:56;101097.69;;;9.35;49.18
29359;BME280;16347;53.232;6.556;2023-04-25T05:45:49;101094.25;;;9.43;49.54
29359;BME280;16347;53.232;6.556;2023-04-25T05:48:29;101098.09;;;9.50;49.57
29359;BME280;16347;53.232;6.556;2023-04-25T05:51:09;101108.97;;;9.50;49.72
29359;BME280;16347;53.232;6.556;2023-04-25T05:53:47;101111.22;;;9.54;49.94
29359;BME280;16347;53.232;6.556;2023-04-25T05:56:15;101116.66;;;9.54;50.50
29359;BME280;16347;53.232;6.556;2023-04-25T05:58:45;101131.25;;;9.34;50.20
29359;BME280;16347;53.232;6.556;2023-04-25T06:01:13;101124.84;;;9.25;50.42
29359;BME280;16347;53.232;6.556;2023-04-25T06:03:43;101126.53;;;9.17;50.25
29359;BME280;16347;53.232;6.556;2023-04-25T06:06:11;101114.28;;;9.22;50.08
29359;BME280;16347;53.232;6.556;2023-04-25T06:08:40;101106.53;;;9.27;49.83
29359;BME280;16347;53.232;6.556;2023-04-25T06:11:11;101108.53;;;9.35;49.18
29359;BME280;16347;53.232;6.556;2023-04-25T06:13:40;101118.25;;;9.38;48.00
29359;BME280;16347;53.232;6.556;2023-04-25T06:16:08;101126.25;;;9.49;47.62
29359;BME280;16347;53.232;6.556;2023-04-25T06:18:36;101119.94;;;9.48;47.35
29359;BME280;16347;53.232;6.556;2023-04-25T06:21:05;101129.66;;;9.51;47.20
29359;BME280;16347;53.232;6.556;2023-04-25T06:23:33;101132.25;;;9.43;46.94
29359;BME280;16347;53.232;6.556;2023-04-25T06:26:03;101140.13;;;9.36;47.54
29359;BME280;16347;53.232;6.556;2023-04-25T06:28:34;101136.66;;;9.44;47.46
29359;BME280;16347;53.232;6.556;2023-04-25T06:31:02;101134.81;;;9.44;47.04
29359;BME280;16347;53.232;6.556;2023-04-25T06:33:30;101141.06;;;9.54;47.02
29359;BME280;16347;53.232;6.556;2023-04-25T06:35:59;101136.66;;;9.53;46.99
29359;BME280;16347;53.232;6.556;2023-04-25T06:38:27;101133.06;;;9.62;47.64
29359;BME280;16347;53.232;6.556;2023-04-25T06:40:56;101138.94;;;9.58;47.95
29359;BME280;16347;53.232;6.556;2023-04-25T06:43:27;101139.38;;;9.53;48.61
29359;BME280;16347;53.232;6.556;2023-04-25T06:46:19;101151.06;;;9.73;48.47
29359;BME280;16347;53.232;6.556;2023-04-25T06:48:48;101161.81;;;9.55;51.18
29359;BME280;16347;53.232;6.556;2023-04-25T06:51:18;101156.97;;;9.49;52.54
29359;BME280;16347;53.232;6.556;2023-04-25T06:53:51;101160.22;;;9.62;52.51
29359;BME280;16347;53.232;6.556;2023-04-25T06:56:28;101173.22;;;9.30;53.73
29359;BME280;16347;53.232;6.556;2023-04-25T06:59:10;101169.78;;;9.47;53.02
29359;BME280;16347;53.232;6.556;2023-04-25T07:01:41;101170.53;;;9.49;51.17
29359;BME280;16347;53.232;6.556;2023-04-25T07:04:18;101172.50;;;9.66;50.65
29359;BME280;16347;53.232;6.556;2023-04-25T07:06:53;101173.38;;;9.67;50.14
29359;BME280;16347;53.232;6.556;2023-04-25T07:09:29;101169.53;;;9.60;50.40
29359;BME280;16347;53.232;6.556;2023-04-25T07:12:00;101170.47;;;9.78;50.35
29359;BME280;16347;53.232;6.556;2023-04-25T07:14:29;101170.34;;;9.60;49.40
29359;BME280;16347;53.232;6.556;2023-04-25T07:16:59;101167.06;;;9.76;48.76
29359;BME280;16347;53.232;6.556;2023-04-25T07:19:31;101175.34;;;9.74;47.95
29359;BME280;16347;53.232;6.556;2023-04-25T07:22:01;101173.66;;;9.73;47.43
29359;BME280;16347;53.232;6.556;2023-04-25T07:24:30;101184.78;;;9.70;47.33
29359;BME280;16347;53.232;6.556;2023-04-25T07:26:59;101191.38;;;9.58;47.44
29359;BME280;16347;53.232;6.556;2023-04-25T07:29:46;101195.53;;;9.62;48.14
29359;BME280;16347;53.232;6.556;2023-04-25T07:32:16;101197.66;;;9.59;48.11
29359;BME280;16347;53.232;6.556;2023-04-25T07:34:44;101197.06;;;9.65;48.78
29359;BME280;16347;53.232;6.556;2023-04-25T07:37:12;101185.78;;;9.69;47.98
29359;BME280;16347;53.232;6.556;2023-04-25T07:39:55;101195.63;;;9.70;48.25
29359;BME280;16347;53.232;6.556;2023-04-25T07:42:23;101205.09;;;9.38;49.20
29359;BME280;16347;53.232;6.556;2023-04-25T07:44:51;101199.25;;;9.42;49.37
29359;BME280;16347;53.232;6.556;2023-04-25T07:47:22;101210.97;;;9.33;49.40
29359;BME280;16347;53.232;6.556;2023-04-25T07:49:51;101205.94;;;9.48;48.92
29359;BME280;16347;53.232;6.556;2023-04-25T07:52:20;101215.25;;;9.36;48.50
29359;BME280;16347;53.232;6.556;2023-04-25T07:54:54;101213.38;;;9.65;47.51
29359;BME280;16347;53.232;6.556;2023-04-25T07:57:29;101230.53;;;9.37;47.82
29359;BME280;16347;53.232;6.556;2023-04-25T07:59:57;101228.69;;;9.47;46.99
29359;BME280;16347;53.232;6.556;2023-04-25T08:02:29;101235.50;;;9.51;47.75
29359;BME280;16347;53.232;6.556;2023-04-25T08:04:58;101261.94;;;9.49;48.48
29359;BME280;16347;53.232;6.556;2023-04-25T08:07:28;101260.09;;;9.59;49.22
29359;BME280;16347;53.232;6.556;2023-04-25T08:10:01;101282.59;;;9.11;51.43
29359;BME280;16347;53.232;6.556;2023-04-25T08:12:33;101300.41;;;8.64;53.54
29359;BME280;16347;53.232;6.556;2023-04-25T08:15:05;101319.78;;;8.18;55.24
29359;BME280;16347;53.232;6.556;2023-04-25T08:17:38;101301.41;;;8.01;55.71
29359;BME280;16347;53.232;6.556;2023-04-25T08:20:07;101293.34;;;8.11;54.36
29359;BME280;16347;53.232;6.556;2023-04-25T08:22:36;101285.09;;;8.33;53.33
29359;BME280;16347;53.232;6.556;2023-04-25T08:25:31;101279.91;;;8.09;52.92
29359;BME280;16347;53.232;6.556;2023-04-25T08:27:59;101270.03;;;8.40;52.83
29359;BME280;16347;53.232;6.556;2023-04-25T08:30:30;101273.09;;;8.56;51.57
29359;BME280;16347;53.232;6.556;2023-04-25T08:33:00;101281.88;;;8.69;52.02
29359;BME280;16347;53.232;6.556;2023-04-25T08:35:47;101284.84;;;8.66;51.55
29359;BME280;16347;53.232;6.556;2023-04-25T08:38:17;101284.75;;;8.77;50.89
29359;BME280;16347;53.232;6.556;2023-04-25T08:40:49;101283.81;;;8.88;50.80
29359;BME280;16347;53.232;6.556;2023-04-25T08:43:20;101283.44;;;9.02;51.03
29359;BME280;16347;53.232;6.556;2023-04-25T08:45:48;101281.16;;;9.07;51.88
29359;BME280;16347;53.232;6.556;2023-04-25T08:48:32;101291.91;;;9.18;50.57
29359;BME280;16347;53.232;6.556;2023-04-25T08:51:07;101293.78;;;9.37;50.12
29359;BME280;16347;53.232;6.556;2023-04-25T08:53:39;101287.34;;;9.28;50.70
29359;BME280;16347;53.232;6.556;2023-04-25T08:56:11;101304.63;;;9.27;50.29
29359;BME280;16347;53.232;6.556;2023-04-25T08:58:41;101304.81;;;9.45;50.03
29359;BME280;16347;53.232;6.556;2023-04-25T09:01:09;101299.84;;;9.60;50.10
29359;BME280;16347;53.232;6.556;2023-04-25T09:03:47;101297.38;;;9.47;51.44
29359;BME280;16347;53.232;6.556;2023-04-25T09:06:18;101296.97;;;9.52;52.08
29359;BME280;16347;53.232;6.556;2023-04-25T09:08:49;101297.69;;;9.73;52.33
29359;BME280;16347;53.232;6.556;2023-04-25T09:11:19;101299.84;;;9.79;53.03
29359;BME280;16347;53.232;6.556;2023-04-25T09:14:10;101297.69;;;9.83;52.94
29359;BME280;16347;53.232;6.556;2023-04-25T09:16:57;101303.69;;;9.76;51.80
29359;BME280;16347;53.232;6.556;2023-04-25T09:20:09;101314.41;;;9.88;52.72
29359;BME280;16347;53.232;6.556;2023-04-25T09:22:38;101306.53;;;9.94;53.63
29359;BME280;16347;53.232;6.556;2023-04-25T09:25:11;101313.00;;;9.93;48.40
29359;BME280;16347;53.232;6.556;2023-04-25T09:27:52;101325.56;;;9.94;47.83
29359;BME280;16347;53.232;6.556;2023-04-25T09:30:29;101321.41;;;9.71;50.70
29359;BME280;16347;53.232;6.556;2023-04-25T09:33:05;101338.44;;;9.92;50.33
29359;BME280;16347;53.232;6.556;2023-04-25T09:35:38;101332.56;;;9.87;49.07
29359;BME280;16347;53.232;6.556;2023-04-25T09:38:10;101333.00;;;9.73;47.55
29359;BME280;16347;53.232;6.556;2023-04-25T09:40:59;101342.00;;;9.73;47.24
29359;BME280;16347;53.232;6.556;2023-04-25T09:43:39;101347.56;;;9.72;45.59
29359;BME280;16347;53.232;6.556;2023-04-25T09:46:08;101332.44;;;9.79;45.27
29359;BME280;16347;53.232;6.556;2023-04-25T09:48:48;101340.88;;;9.95;46.20
29359;BME280;16347;53.232;6.556;2023-04-25T09:51:25;101350.00;;;9.94;45.77
29359;BME280;16347;53.232;6.556;2023-04-25T09:53:55;101340.00;;;10.04;46.27
29359;BME280;16347;53.232;6.556;2023-04-25T09:56:48;101345.00;;;9.99;46.58
29359;BME280;16347;53.232;6.556;2023-04-25T09:59:20;101366.19;;;10.15;46.55
29359;BME280;16347;53.232;6.556;2023-04-25T10:01:49;101364.31;;;9.96;47.88
29359;BME280;16347;53.232;6.556;2023-04-25T10:04:28;101361.44;;;10.07;47.90
29359;BME280;16347;53.232;6.556;2023-04-25T10:07:05;101369.59;;;9.98;48.29
29359;BME280;16347;53.232;6.556;2023-04-25T10:09:36;101392.63;;;10.03;48.46
29359;BME280;16347;53.232;6.556;2023-04-25T10:12:06;101388.09;;;10.23;49.67
29359;BME280;16347;53.232;6.556;2023-04-25T10:14:34;101387.16;;;9.84;51.70
29359;BME280;16347;53.232;6.556;2023-04-25T10:17:02;101396.16;;;9.75;52.58
29359;BME280;16347;53.232;6.556;2023-04-25T10:19:31;101386.28;;;9.64;52.30
29359;BME280;16347;53.232;6.556;2023-04-25T10:22:10;101392.00;;;9.71;53.03
29359;BME280;16347;53.232;6.556;2023-04-25T10:24:39;101388.31;;;9.82;51.88
29359;BME280;16347;53.232;6.556;2023-04-25T10:27:08;101391.63;;;9.95;51.68
29359;BME280;16347;53.232;6.556;2023-04-25T10:29:36;101386.47;;;10.11;50.98
29359;BME280;16347;53.232;6.556;2023-04-25T10:32:05;101373.06;;;10.28;51.06
29359;BME280;16347;53.232;6.556;2023-04-25T10:34:40;101387.38;;;10.40;49.75
29359;BME280;16347;53.232;6.556;2023-04-25T10:37:10;101388.22;;;10.50;49.23
29359;BME280;16347;53.232;6.556;2023-04-25T10:39:39;101379.06;;;10.61;49.06
29359;BME280;16347;53.232;6.556;2023-04-25T10:42:08;101402.63;;;10.70;49.63
29359;BME280;16347;53.232;6.556;2023-04-25T10:44:37;101395.94;;;10.45;50.17
29359;BME280;16347;53.232;6.556;2023-04-25T10:47:07;101423.78;;;9.90;48.45
29359;BME280;16347;53.232;6.556;2023-04-25T10:49:41;101419.16;;;9.80;48.84
29359;BME280;16347;53.232;6.556;2023-04-25T10:52:16;101414.47;;;9.73;50.84
29359;BME280;16347;53.232;6.556;2023-04-25T10:54:48;101408.75;;;9.76;51.19
29359;BME280;16347;53.232;6.556;2023-04-25T10:57:28;101409.63;;;9.96;51.91
29359;BME280;16347;53.232;6.556;2023-04-25T11:00:01;101413.94;;;10.08;51.92
29359;BME280;16347;53.232;6.556;2023-04-25T11:02:37;101415.09;;;10.15;50.36
29359;BME280;16347;53.232;6.556;2023-04-25T11:05:06;101405.56;;;10.20;50.51
29359;BME280;16347;53.232;6.556;2023-04-25T11:07:38;101389.06;;;10.41;51.98
29359;BME280;16347;53.232;6.556;2023-04-25T11:10:25;101397.41;;;10.30;48.43
29359;BME280;16347;53.232;6.556;2023-04-25T11:12:53;101403.09;;;10.46;47.89
29359;BME280;16347;53.232;6.556;2023-04-25T11:15:22;101416.81;;;10.54;45.12
29359;BME280;16347;53.232;6.556;2023-04-25T11:17:50;101412.97;;;10.38;42.89
29359;BME280;16347;53.232;6.556;2023-04-25T11:20:19;101408.41;;;10.19;43.59
29359;BME280;16347;53.232;6.556;2023-04-25T11:22:48;101407.81;;;10.25;44.34
29359;BME280;16347;53.232;6.556;2023-04-25T11:25:18;101407.69;;;10.36;44.58
29359;BME280;16347;53.232;6.556;2023-04-25T11:27:50;101417.84;;;10.53;45.41
29359;BME280;16347;53.232;6.556;2023-04-25T11:30:20;101420.94;;;10.68;44.13
29359;BME280;16347;53.232;6.556;2023-04-25T11:32:48;101431.25;;;10.64;43.16
29359;BME280;16347;53.232;6.556;2023-04-25T11:35:16;101426.56;;;10.47;43.77
29359;BME280;16347;53.232;6.556;2023-04-25T11:37:44;101434.44;;;10.60;43.21
29359;BME280;16347;53.232;6.556;2023-04-25T11:40:14;101425.84;;;10.74;44.39
29359;BME280;16347;53.232;6.556;2023-04-25T11:42:44;101442.59;;;10.60;44.06
29359;BME280;16347;53.232;6.556;2023-04-25T11:45:12;101426.84;;;10.54;44.94
29359;BME280;16347;53.232;6.556;2023-04-25T11:47:40;101457.31;;;10.48;43.21
29359;BME280;16347;53.232;6.556;2023-04-25T11:50:09;101436.72;;;10.55;42.53
29359;BME280;16347;53.232;6.556;2023-04-25T11:52:38;101456.31;;;10.77;43.40
29359;BME280;16347;53.232;6.556;2023-04-25T11:55:08;101456.41;;;10.95;42.81
29359;BME280;16347;53.232;6.556;2023-04-25T11:57:39;101441.09;;;10.85;40.86
29359;BME280;16347;53.232;6.556;2023-04-25T12:00:09;101446.56;;;10.75;41.25
29359;BME280;16347;53.232;6.556;2023-04-25T12:02:45;101440.25;;;10.94;42.87
29359;BME280;16347;53.232;6.556;2023-04-25T12:05:15;101447.66;;;11.11;43.16
29359;BME280;16347;53.232;6.556;2023-04-25T12:07:46;101437.03;;;11.17;42.41
29359;BME280;16347;53.232;6.556;2023-04-25T12:10:18;101448.16;;;11.33;42.62
29359;BME280;16347;53.232;6.556;2023-04-25T12:12:48;101452.78;;;11.23;42.75
29359;BME280;16347;53.232;6.556;2023-04-25T12:15:18;101458.28;;;11.04;43.06
29359;BME280;16347;53.232;6.556;2023-04-25T12:17:48;101454.25;;;10.99;42.65
29359;BME280;16347;53.232;6.556;2023-04-25T12:20:17;101462.97;;;11.02;42.57
29359;BME280;16347;53.232;6.556;2023-04-25T12:22:47;101454.25;;;10.99;41.17
29359;BME280;16347;53.232;6.556;2023-04-25T12:25:36;101452.03;;;11.21;40.34
29359;BME280;16347;53.232;6.556;2023-04-25T12:28:13;101465.41;;;11.05;41.13
29359;BME280;16347;53.232;6.556;2023-04-25T12:30:55;101472.56;;;11.16;42.53
29359;BME280;16347;53.232;6.556;2023-04-25T12:33:25;101455.88;;;10.82;43.68
29359;BME280;16347;53.232;6.556;2023-04-25T12:35:54;101468.31;;;10.85;43.91
29359;BME280;16347;53.232;6.556;2023-04-25T12:38:26;101471.16;;;11.02;43.36
29359;BME280;16347;53.232;6.556;2023-04-25T12:40:56;101466.88;;;10.90;43.48
29359;BME280;16347;53.232;6.556;2023-04-25T12:43:26;101471.47;;;10.80;43.42
29359;BME280;16347;53.232;6.556;2023-04-25T12:45:55;101463.63;;;10.67;44.48
29359;BME280;16347;53.232;6.556;2023-04-25T12:48:23;101479.38;;;10.73;42.88
29359;BME280;16347;53.232;6.556;2023-04-25T12:50:52;101461.84;;;10.95;43.58
29359;BME280;16347;53.232;6.556;2023-04-25T12:53:21;101464.72;;;11.03;41.82
29359;BME280;16347;53.232;6.556;2023-04-25T12:55:49;101481.63;;;10.97;41.13
29359;BME280;16347;53.232;6.556;2023-04-25T12:58:19;101501.41;;;10.90;42.69
29359;BME280;16347;53.232;6.556;2023-04-25T13:00:48;101473.91;;;10.93;43.52
29359;BME280;16347;53.232;6.556;2023-04-25T13:03:16;101478.53;;;11.29;43.93
29359;BME280;16347;53.232;6.556;2023-04-25T13:05:45;101498.06;;;11.52;43.45
29359;BME280;16347;53.232;6.556;2023-04-25T13:08:13;101497.00;;;11.45;40.79
29359;BME280;16347;53.232;6.556;2023-04-25T13:10:42;101484.47;;;11.52;40.88
29359;BME280;16347;53.232;6.556;2023-04-25T13:13:10;101476.22;;;11.80;39.48
29359;BME280;16347;53.232;6.556;2023-04-25T13:15:38;101482.81;;;12.05;40.36
29359;BME280;16347;53.232;6.556;2023-04-25T13:18:07;101491.09;;;12.31;40.78
29359;BME280;16347;53.232;6.556;2023-04-25T13:20:35;101475.81;;;12.20;41.00
29359;BME280;16347;53.232;6.556;2023-04-25T13:23:04;101480.97;;;12.23;41.85